Portada
METAR-TAF:

METAR-TAF

Aeroports :

Orà, Algèria

latitud: 35-38N, longitud: 000-36W, altitud: 90 m

Observació

L'informe es va fer fa 11 minuts, a les 07:00 UTC
Vent 6 kt del Nord-Est
Temperatura 23°C
Humitat 73%
Pressió 1023 hPa
Visibilitat 10 km o més
sense núvols per sota de 1500 mi sense presència de cumulonimbus.

METAR: DAOO 260700Z 04006KT CAVOK 23/18 Q1023

Hora: 08:11 (07:11 UTC)

Pronòstic

L'informe es va fer fa 2 hores i 11 minuts, a les 05:00 UTC
Pronòstic vàlid del 26 a les 06 UTC al 27 a les 06 UTC
Vent 12 kt del Nord-Est
Visibilitat 10 km o més
Escasses núvols a una alçada de 2300 ft
Probabilitat 30% :
Temporalment
l' 26 a les 06 UTC al 26 a les 08 UTC
Vent 2 kt amb direcció variable
Visibilitat: 4000 m
Núvols disperses a una alçada de 1000 ft
boirina
Evolucionant progressivament
l' 26 a les 20 UTC al 26 a les 23 UTC
Vent 2 kt amb direcció variable

TAF: DAOO 260500Z 2606/2706 04012KT 9999 FEW023 PROB30 TEMPO 2606/2608 VRB02KT 4000 BR SCT010 BECMG 2620/2623 VRB02KT

Observacions i pronòstics meteorològics de més de 4000 aeroports (METAR i TAF).

Les estacions disponibles són els punts grocs i vermells al mapa.

Posi el ratolí al punt desitjat per veure el nom de l'estació.

Feu clic per veure les observacions i els pronòstics meteorològics.

Per canviar el mapa: feu clic els botons verds amb una creu de color negre per apropar; al botó verd amb un guió per allunyar la imatge; o en les fletxes verdes per a mapes adjacents.


METAR-TAF: